Pinot Noir Commodore — WCZ7643 — position and weather

sailwx.info

Track history (hours):
 
Tides and Currents Weather Stations Pressure Air Temp Water Temp Dewpoint Dewpoint Depression Visibility Wind Speed Wind Dir Waves Ship Positions

Pinot Noir Commodore

Owner: PROESCHER, WARD H, Alameda, CA. More information available from US FCC via Universal Licensing System and Coast Guard Vessel Documentation Center.

Last reported at 2018-Jun-16 05:44 UTC. Time now 2018-Jun-22 11:31 UTC.
Position N 37°47' W 122°17'.

Length 25 m; draft 1 m.

Type: Passenger vessel. MMSI: 367437910.

Date/timePositionNaut miles runAvg speedWind from/ knotsBaromVisibWave heightAir tempDewpointWater temp
2018-Jun-16 05:44N 37°47' W 122°17'0 0.0
2018-Jun-16 05:30N 37°47' W 122°17'0 0.6
2018-Jun-16 05:00N 37°48' W 122°17'4 6.9
2018-Jun-16 04:30N 37°49' W 122°21'3 5.1
2018-Jun-16 03:59N 37°47' W 122°23'3 7.1
2018-Jun-16 03:30N 37°50' W 122°26'1 2.4
2018-Jun-16 03:01N 37°50' W 122°27'2 4.0
2018-Jun-16 02:31N 37°49' W 122°25'4 7.3
2018-Jun-16 02:01N 37°48' W 122°21'3 6.3
2018-Jun-16 01:31N 37°47' W 122°17'0 0.0
2018-Jun-16 01:00N 37°47' W 122°17'0 0.0
2018-Jun-16 00:30N 37°47' W 122°17'0 0.0
2018-Jun-15 23:02N 37°47' W 122°17'0 0.2
2018-Jun-15 23:00N 37°47' W 122°17'0 0.0
2018-Jun-15 22:30N 37°47' W 122°17'0 0.0
2018-Jun-14 23:46N 37°47' W 122°17'2 5.8
2018-Jun-14 23:30N 37°48' W 122°19'4 7.3
2018-Jun-14 23:00N 37°47' W 122°23'1 1.1
2018-Jun-14 22:30N 37°47' W 122°23'2 3.6
2018-Jun-14 22:00N 37°49' W 122°25'2 3.9
2018-Jun-14 21:30N 37°50' W 122°27'1 1.5
2018-Jun-14 21:00N 37°49' W 122°27'3 6.8
2018-Jun-14 20:30N 37°47' W 122°23'0 0.6
2018-Jun-14 20:00N 37°47' W 122°23'0 0.0
2018-Jun-14 19:30N 37°47' W 122°23'3 6.8
2018-Jun-14 19:00N 37°48' W 122°19'2 1.2
2018-Jun-14 17:23N 37°47' W 122°17'0 0.0
2018-Jun-14 17:00N 37°47' W 122°17'  
2018-Jun-10 04:37N 37°47' W 122°17'0 0.0
2018-Jun-10 04:30N 37°47' W 122°17'0 0.7
2018-Jun-10 04:01N 37°48' W 122°17'4 7.3
2018-Jun-10 03:30N 37°48' W 122°22'3 6.2
2018-Jun-10 03:00N 37°49' W 122°25'3 5.8
2018-Jun-10 02:31N 37°47' W 122°23'2 4.6
2018-Jun-10 02:00N 37°48' W 122°20'3 5.8
2018-Jun-10 01:30N 37°47' W 122°17'0 0.0
2018-Jun-10 01:00N 37°47' W 122°17'0 0.0
2018-Jun-10 00:30N 37°47' W 122°17'0 0.0
2018-Jun-09 20:54N 37°47' W 122°17'0 0.0
2018-Jun-09 20:30N 37°47' W 122°17'0 0.0
2018-Jun-09 20:00N 37°47' W 122°17'0 0.0
2018-Jun-09 08:09N 37°47' W 122°17'0 2.1
2018-Jun-09 08:00N 37°48' W 122°17'4 7.4
2018-Jun-09 07:30N 37°48' W 122°22'3 6.2
2018-Jun-09 07:01N 37°50' W 122°25'3 6.6
2018-Jun-09 06:31N 37°51' W 122°29'0 0.0
2018-Jun-09 06:00N 37°51' W 122°29'0 1.0
2018-Jun-09 05:30N 37°51' W 122°28'3 7.0
2018-Jun-09 05:01N 37°49' W 122°24'2 3.0
2018-Jun-09 04:31N 37°50' W 122°26'2 4.1
2018-Jun-09 04:01N 37°51' W 122°28'0 0.9
2018-Jun-09 03:31N 37°51' W 122°29'1 1.0
2018-Jun-09 03:00N 37°51' W 122°28'3 6.7
2018-Jun-09 02:31N 37°50' W 122°24'4 7.2
2018-Jun-09 02:01N 37°48' W 122°20'3 5.8
2018-Jun-09 01:30N 37°47' W 122°17'0 0.0
2018-Jun-09 01:00N 37°47' W 122°17'0 0.0
2018-Jun-09 00:30N 37°47' W 122°17'0 0.0
2018-Jun-09 00:00N 37°47' W 122°17'0 0.0
2018-Jun-08 23:30N 37°47' W 122°17'0 0.0
2018-Jun-08 23:00N 37°47' W 122°17'0 0.0
2018-Jun-08 22:30N 37°47' W 122°17'0 0.0
2018-Jun-08 22:00N 37°47' W 122°17'0 0.0
2018-Jun-08 21:30N 37°47' W 122°17'0 0.2
2018-Jun-08 21:00N 37°48' W 122°17'0 0.1
2018-Jun-08 19:55N 37°47' W 122°17'0 0.0
2018-Jun-08 19:30N 37°47' W 122°17'0 0.0
2018-Jun-07 03:13N 37°47' W 122°17'1 4.9
2018-Jun-07 03:00N 37°48' W 122°18'4 7.9
2018-Jun-07 02:30N 37°47' W 122°23'1 1.3
2018-Jun-07 02:01N 37°46' W 122°23'2 4.5
2018-Jun-07 01:31N 37°48' W 122°24'2 4.3
2018-Jun-07 01:00N 37°50' W 122°26'1 2.5
2018-Jun-07 00:30N 37°49' W 122°27'3 5.6
2018-Jun-07 00:00N 37°48' W 122°23'1 2.9
2018-Jun-06 23:30N 37°47' W 122°23'1 1.1
2018-Jun-06 23:00N 37°47' W 122°22'4 7.3
2018-Jun-06 22:30N 37°48' W 122°18'1 2.0
2018-Jun-06 22:00N 37°47' W 122°17'0 0.0
2018-Jun-06 19:18N 37°47' W 122°17'0 0.0
2018-Jun-06 19:00N 37°47' W 122°17'0 0.0
2018-Jun-06 18:31N 37°47' W 122°17'0 0.0
2018-Jun-06 18:01N 37°47' W 122°17'  
Track history (hours):
 
Tides and Currents Weather Stations Pressure Air Temp Water Temp Dewpoint Dewpoint Depression Visibility Wind Speed Wind Dir Waves Ship Positions

Pinot Noir Commodore

Owner: PROESCHER, WARD H, Alameda, CA. More information available from US FCC via Universal Licensing System and Coast Guard Vessel Documentation Center.

Last reported at 2018-Jun-16 05:44 UTC. Time now 2018-Jun-22 11:31 UTC.
Position N 37°47' W 122°17'.

Length 25 m; draft 1 m.

Type: Passenger vessel. MMSI: 367437910.

Date/timePositionNaut miles runAvg speedWind from/ knotsBaromVisibWave heightAir tempDewpointWater temp
2018-Jun-16 05:44N 37°47' W 122°17'0 0.0
2018-Jun-16 05:30N 37°47' W 122°17'0 0.6
2018-Jun-16 05:00N 37°48' W 122°17'4 6.9
2018-Jun-16 04:30N 37°49' W 122°21'3 5.1
2018-Jun-16 03:59N 37°47' W 122°23'3 7.1
2018-Jun-16 03:30N 37°50' W 122°26'1 2.4
2018-Jun-16 03:01N 37°50' W 122°27'2 4.0
2018-Jun-16 02:31N 37°49' W 122°25'4 7.3
2018-Jun-16 02:01N 37°48' W 122°21'3 6.3
2018-Jun-16 01:31N 37°47' W 122°17'0 0.0
2018-Jun-16 01:00N 37°47' W 122°17'0 0.0
2018-Jun-16 00:30N 37°47' W 122°17'0 0.0
2018-Jun-15 23:02N 37°47' W 122°17'0 0.2
2018-Jun-15 23:00N 37°47' W 122°17'0 0.0
2018-Jun-15 22:30N 37°47' W 122°17'0 0.0
2018-Jun-14 23:46N 37°47' W 122°17'2 5.8
2018-Jun-14 23:30N 37°48' W 122°19'4 7.3
2018-Jun-14 23:00N 37°47' W 122°23'1 1.1
2018-Jun-14 22:30N 37°47' W 122°23'2 3.6
2018-Jun-14 22:00N 37°49' W 122°25'2 3.9
2018-Jun-14 21:30N 37°50' W 122°27'1 1.5
2018-Jun-14 21:00N 37°49' W 122°27'3 6.8
2018-Jun-14 20:30N 37°47' W 122°23'0 0.6
2018-Jun-14 20:00N 37°47' W 122°23'0 0.0
2018-Jun-14 19:30N 37°47' W 122°23'3 6.8
2018-Jun-14 19:00N 37°48' W 122°19'2 1.2
2018-Jun-14 17:23N 37°47' W 122°17'0 0.0
2018-Jun-14 17:00N 37°47' W 122°17'  
2018-Jun-10 04:37N 37°47' W 122°17'0 0.0
2018-Jun-10 04:30N 37°47' W 122°17'0 0.7
2018-Jun-10 04:01N 37°48' W 122°17'4 7.3
2018-Jun-10 03:30N 37°48' W 122°22'3 6.2
2018-Jun-10 03:00N 37°49' W 122°25'3 5.8
2018-Jun-10 02:31N 37°47' W 122°23'2 4.6
2018-Jun-10 02:00N 37°48' W 122°20'3 5.8
2018-Jun-10 01:30N 37°47' W 122°17'0 0.0
2018-Jun-10 01:00N 37°47' W 122°17'0 0.0
2018-Jun-10 00:30N 37°47' W 122°17'0 0.0
2018-Jun-09 20:54N 37°47' W 122°17'0 0.0
2018-Jun-09 20:30N 37°47' W 122°17'0 0.0
2018-Jun-09 20:00N 37°47' W 122°17'0 0.0
2018-Jun-09 08:09N 37°47' W 122°17'0 2.1
2018-Jun-09 08:00N 37°48' W 122°17'4 7.4
2018-Jun-09 07:30N 37°48' W 122°22'3 6.2
2018-Jun-09 07:01N 37°50' W 122°25'3 6.6
2018-Jun-09 06:31N 37°51' W 122°29'0 0.0
2018-Jun-09 06:00N 37°51' W 122°29'0 1.0
2018-Jun-09 05:30N 37°51' W 122°28'3 7.0
2018-Jun-09 05:01N 37°49' W 122°24'2 3.0
2018-Jun-09 04:31N 37°50' W 122°26'2 4.1
2018-Jun-09 04:01N 37°51' W 122°28'0 0.9
2018-Jun-09 03:31N 37°51' W 122°29'1 1.0
2018-Jun-09 03:00N 37°51' W 122°28'3 6.7
2018-Jun-09 02:31N 37°50' W 122°24'4 7.2
2018-Jun-09 02:01N 37°48' W 122°20'3 5.8
2018-Jun-09 01:30N 37°47' W 122°17'0 0.0
2018-Jun-09 01:00N 37°47' W 122°17'0 0.0
2018-Jun-09 00:30N 37°47' W 122°17'0 0.0
2018-Jun-09 00:00N 37°47' W 122°17'0 0.0
2018-Jun-08 23:30N 37°47' W 122°17'0 0.0
2018-Jun-08 23:00N 37°47' W 122°17'0 0.0
2018-Jun-08 22:30N 37°47' W 122°17'0 0.0
2018-Jun-08 22:00N 37°47' W 122°17'0 0.0
2018-Jun-08 21:30N 37°47' W 122°17'0 0.2
2018-Jun-08 21:00N 37°48' W 122°17'0 0.1
2018-Jun-08 19:55N 37°47' W 122°17'0 0.0
2018-Jun-08 19:30N 37°47' W 122°17'0 0.0
2018-Jun-07 03:13N 37°47' W 122°17'1 4.9
2018-Jun-07 03:00N 37°48' W 122°18'4 7.9
2018-Jun-07 02:30N 37°47' W 122°23'1 1.3
2018-Jun-07 02:01N 37°46' W 122°23'2 4.5
2018-Jun-07 01:31N 37°48' W 122°24'2 4.3
2018-Jun-07 01:00N 37°50' W 122°26'1 2.5
2018-Jun-07 00:30N 37°49' W 122°27'3 5.6
2018-Jun-07 00:00N 37°48' W 122°23'1 2.9
2018-Jun-06 23:30N 37°47' W 122°23'1 1.1
2018-Jun-06 23:00N 37°47' W 122°22'4 7.3
2018-Jun-06 22:30N 37°48' W 122°18'1 2.0
2018-Jun-06 22:00N 37°47' W 122°17'0 0.0
2018-Jun-06 19:18N 37°47' W 122°17'0 0.0
2018-Jun-06 19:00N 37°47' W 122°17'0 0.0
2018-Jun-06 18:31N 37°47' W 122°17'0 0.0
2018-Jun-06 18:01N 37°47' W 122°17'  

Dump ship's entire track history